sensor_id;sensor_type;location;lat;lon;timestamp;P1;durP1;ratioP1;P2;durP2;ratioP2
44098;SDS011;29762;50.086;14.364;2023-05-07T00:04:04;1.80;;;1.70;;
44098;SDS011;29762;50.086;14.364;2023-05-07T00:09:24;2.13;;;1.92;;
44098;SDS011;29762;50.086;14.364;2023-05-07T00:14:44;2.10;;;1.90;;
44098;SDS011;29762;50.086;14.364;2023-05-07T00:20:04;2.05;;;1.85;;
44098;SDS011;29762;50.086;14.364;2023-05-07T00:25:24;2.25;;;2.03;;
44098;SDS011;29762;50.086;14.364;2023-05-07T00:30:44;2.28;;;1.90;;
44098;SDS011;29762;50.086;14.364;2023-05-07T00:36:03;3.75;;;2.10;;
44098;SDS011;29762;50.086;14.364;2023-05-07T00:41:23;2.78;;;1.80;;
44098;SDS011;29762;50.086;14.364;2023-05-07T00:46:42;2.45;;;2.10;;
44098;SDS011;29762;50.086;14.364;2023-05-07T00:52:05;2.08;;;1.80;;
44098;SDS011;29762;50.086;14.364;2023-05-07T00:57:26;2.05;;;1.80;;
44098;SDS011;29762;50.086;14.364;2023-05-07T01:02:46;2.40;;;2.20;;
44098;SDS011;29762;50.086;14.364;2023-05-07T01:08:06;2.20;;;1.90;;
44098;SDS011;29762;50.086;14.364;2023-05-07T01:13:25;1.83;;;1.70;;
44098;SDS011;29762;50.086;14.364;2023-05-07T01:18:46;2.33;;;1.88;;
44098;SDS011;29762;50.086;14.364;2023-05-07T01:24:08;1.88;;;1.77;;
44098;SDS011;29762;50.086;14.364;2023-05-07T01:29:28;1.95;;;1.75;;
44098;SDS011;29762;50.086;14.364;2023-05-07T01:34:48;1.90;;;1.80;;
44098;SDS011;29762;50.086;14.364;2023-05-07T01:40:08;2.10;;;1.90;;
44098;SDS011;29762;50.086;14.364;2023-05-07T01:45:28;1.95;;;1.77;;
44098;SDS011;29762;50.086;14.364;2023-05-07T01:50:50;2.10;;;1.90;;
44098;SDS011;29762;50.086;14.364;2023-05-07T01:56:10;1.90;;;1.80;;
44098;SDS011;29762;50.086;14.364;2023-05-07T02:01:32;2.10;;;1.90;;
44098;SDS011;29762;50.086;14.364;2023-05-07T02:06:52;1.80;;;1.70;;
44098;SDS011;29762;50.086;14.364;2023-05-07T02:12:13;2.08;;;1.83;;
44098;SDS011;29762;50.086;14.364;2023-05-07T02:17:32;2.00;;;1.80;;
44098;SDS011;29762;50.086;14.364;2023-05-07T02:22:53;1.90;;;1.77;;
44098;SDS011;29762;50.086;14.364;2023-05-07T02:28:13;2.13;;;1.75;;
44098;SDS011;29762;50.086;14.364;2023-05-07T02:33:53;1.70;;;1.60;;
44098;SDS011;29762;50.086;14.364;2023-05-07T02:39:13;2.30;;;1.88;;
44098;SDS011;29762;50.086;14.364;2023-05-07T02:44:33;1.90;;;1.70;;
44098;SDS011;29762;50.086;14.364;2023-05-07T02:49:55;2.10;;;1.80;;
44098;SDS011;29762;50.086;14.364;2023-05-07T02:55:14;1.70;;;1.60;;
44098;SDS011;29762;50.086;14.364;2023-05-07T03:00:34;1.88;;;1.70;;
44098;SDS011;29762;50.086;14.364;2023-05-07T03:06:32;1.80;;;1.70;;
44098;SDS011;29762;50.086;14.364;2023-05-07T03:11:52;1.98;;;1.80;;
44098;SDS011;29762;50.086;14.364;2023-05-07T03:17:11;1.75;;;1.58;;
44098;SDS011;29762;50.086;14.364;2023-05-07T03:22:31;1.90;;;1.70;;
44098;SDS011;29762;50.086;14.364;2023-05-07T03:27:51;1.67;;;1.58;;
44098;SDS011;29762;50.086;14.364;2023-05-07T03:33:15;1.83;;;1.73;;
44098;SDS011;29762;50.086;14.364;2023-05-07T03:38:34;1.77;;;1.67;;
44098;SDS011;29762;50.086;14.364;2023-05-07T03:43:54;1.73;;;1.60;;
44098;SDS011;29762;50.086;14.364;2023-05-07T03:49:14;1.80;;;1.70;;
44098;SDS011;29762;50.086;14.364;2023-05-07T03:54:33;1.85;;;1.63;;
44098;SDS011;29762;50.086;14.364;2023-05-07T03:59:53;2.25;;;1.95;;
44098;SDS011;29762;50.086;14.364;2023-05-07T04:05:13;2.00;;;1.75;;
44098;SDS011;29762;50.086;14.364;2023-05-07T04:10:35;1.70;;;1.60;;
44098;SDS011;29762;50.086;14.364;2023-05-07T04:16:00;2.00;;;1.80;;
44098;SDS011;29762;50.086;14.364;2023-05-07T04:21:21;2.38;;;1.80;;
44098;SDS011;29762;50.086;14.364;2023-05-07T04:26:43;2.22;;;1.80;;
44098;SDS011;29762;50.086;14.364;2023-05-07T04:32:03;1.90;;;1.70;;
44098;SDS011;29762;50.086;14.364;2023-05-07T04:37:23;1.70;;;1.60;;
44098;SDS011;29762;50.086;14.364;2023-05-07T04:42:45;1.50;;;1.40;;
44098;SDS011;29762;50.086;14.364;2023-05-07T04:48:06;1.50;;;1.40;;
44098;SDS011;29762;50.086;14.364;2023-05-07T04:53:27;3.42;;;1.60;;
44098;SDS011;29762;50.086;14.364;2023-05-07T04:58:48;2.22;;;1.55;;
44098;SDS011;29762;50.086;14.364;2023-05-07T05:04:11;2.10;;;1.80;;
44098;SDS011;29762;50.086;14.364;2023-05-07T05:09:31;1.90;;;1.70;;
44098;SDS011;29762;50.086;14.364;2023-05-07T05:14:50;1.60;;;1.50;;
44098;SDS011;29762;50.086;14.364;2023-05-07T05:20:10;1.70;;;1.60;;
44098;SDS011;29762;50.086;14.364;2023-05-07T05:25:32;1.75;;;1.65;;
44098;SDS011;29762;50.086;14.364;2023-05-07T05:30:53;1.70;;;1.60;;
44098;SDS011;29762;50.086;14.364;2023-05-07T05:36:14;1.50;;;1.40;;
44098;SDS011;29762;50.086;14.364;2023-05-07T05:41:35;1.55;;;1.45;;
44098;SDS011;29762;50.086;14.364;2023-05-07T05:46:55;2.30;;;1.52;;
44098;SDS011;29762;50.086;14.364;2023-05-07T05:52:17;1.73;;;1.60;;
44098;SDS011;29762;50.086;14.364;2023-05-07T05:57:37;1.60;;;1.50;;
44098;SDS011;29762;50.086;14.364;2023-05-07T06:02:57;1.80;;;1.70;;
44098;SDS011;29762;50.086;14.364;2023-05-07T06:08:18;1.50;;;1.40;;
44098;SDS011;29762;50.086;14.364;2023-05-07T06:13:38;1.85;;;1.75;;
44098;SDS011;29762;50.086;14.364;2023-05-07T06:18:57;1.65;;;1.50;;
44098;SDS011;29762;50.086;14.364;2023-05-07T06:24:17;1.45;;;1.35;;
44098;SDS011;29762;50.086;14.364;2023-05-07T06:29:37;1.98;;;1.75;;
44098;SDS011;29762;50.086;14.364;2023-05-07T06:35:03;1.70;;;1.60;;
44098;SDS011;29762;50.086;14.364;2023-05-07T06:40:23;1.60;;;1.50;;
44098;SDS011;29762;50.086;14.364;2023-05-07T06:45:43;1.58;;;1.48;;
44098;SDS011;29762;50.086;14.364;2023-05-07T06:51:04;1.60;;;1.50;;
44098;SDS011;29762;50.086;14.364;2023-05-07T06:56:24;1.70;;;1.60;;
44098;SDS011;29762;50.086;14.364;2023-05-07T07:01:44;1.80;;;1.70;;
44098;SDS011;29762;50.086;14.364;2023-05-07T07:07:04;1.60;;;1.50;;
44098;SDS011;29762;50.086;14.364;2023-05-07T07:12:24;1.67;;;1.50;;
44098;SDS011;29762;50.086;14.364;2023-05-07T07:17:45;1.60;;;1.50;;
44098;SDS011;29762;50.086;14.364;2023-05-07T07:23:05;1.52;;;1.42;;
44098;SDS011;29762;50.086;14.364;2023-05-07T07:28:24;1.60;;;1.40;;
44098;SDS011;29762;50.086;14.364;2023-05-07T07:33:44;1.38;;;1.27;;
44098;SDS011;29762;50.086;14.364;2023-05-07T07:39:04;1.33;;;1.23;;
44098;SDS011;29762;50.086;14.364;2023-05-07T07:44:24;1.50;;;1.40;;
44098;SDS011;29762;50.086;14.364;2023-05-07T07:49:50;1.50;;;1.40;;
44098;SDS011;29762;50.086;14.364;2023-05-07T07:55:09;1.77;;;1.55;;
44098;SDS011;29762;50.086;14.364;2023-05-07T08:00:31;1.50;;;1.40;;
44098;SDS011;29762;50.086;14.364;2023-05-07T08:05:51;1.40;;;1.30;;
44098;SDS011;29762;50.086;14.364;2023-05-07T08:11:10;1.50;;;1.40;;
44098;SDS011;29762;50.086;14.364;2023-05-07T08:16:30;1.55;;;1.45;;
44098;SDS011;29762;50.086;14.364;2023-05-07T08:21:51;1.40;;;1.30;;
44098;SDS011;29762;50.086;14.364;2023-05-07T08:27:12;1.40;;;1.30;;
44098;SDS011;29762;50.086;14.364;2023-05-07T08:32:34;1.73;;;1.63;;
44098;SDS011;29762;50.086;14.364;2023-05-07T08:37:54;1.63;;;1.52;;
44098;SDS011;29762;50.086;14.364;2023-05-07T08:43:15;1.60;;;1.50;;
44098;SDS011;29762;50.086;14.364;2023-05-07T08:48:35;1.50;;;1.40;;
44098;SDS011;29762;50.086;14.364;2023-05-07T08:54:05;1.55;;;1.45;;
44098;SDS011;29762;50.086;14.364;2023-05-07T08:59:26;1.42;;;1.33;;
44098;SDS011;29762;50.086;14.364;2023-05-07T09:04:46;1.45;;;1.35;;
44098;SDS011;29762;50.086;14.364;2023-05-07T09:10:06;1.40;;;1.30;;
44098;SDS011;29762;50.086;14.364;2023-05-07T09:15:28;1.52;;;1.42;;
44098;SDS011;29762;50.086;14.364;2023-05-07T09:20:48;1.40;;;1.30;;
44098;SDS011;29762;50.086;14.364;2023-05-07T09:26:11;1.40;;;1.30;;
44098;SDS011;29762;50.086;14.364;2023-05-07T09:31:36;1.40;;;1.30;;
44098;SDS011;29762;50.086;14.364;2023-05-07T09:37:01;5.30;;;4.80;;
44098;SDS011;29762;50.086;14.364;2023-05-07T09:42:25;5.82;;;5.30;;
44098;SDS011;29762;50.086;14.364;2023-05-07T09:47:49;6.25;;;5.57;;
44098;SDS011;29762;50.086;14.364;2023-05-07T09:53:13;6.38;;;5.72;;
44098;SDS011;29762;50.086;14.364;2023-05-07T09:58:36;4.57;;;3.90;;
44098;SDS011;29762;50.086;14.364;2023-05-07T10:03:56;4.78;;;4.20;;
44098;SDS011;29762;50.086;14.364;2023-05-07T10:09:17;4.13;;;3.72;;
44098;SDS011;29762;50.086;14.364;2023-05-07T10:14:37;5.00;;;3.88;;
44098;SDS011;29762;50.086;14.364;2023-05-07T10:19:58;4.00;;;3.60;;
44098;SDS011;29762;50.086;14.364;2023-05-07T10:25:22;4.00;;;3.70;;
44098;SDS011;29762;50.086;14.364;2023-05-07T10:30:56;5.13;;;4.65;;
44098;SDS011;29762;50.086;14.364;2023-05-07T10:36:26;6.22;;;5.70;;
44098;SDS011;29762;50.086;14.364;2023-05-07T10:41:47;5.45;;;4.82;;
44098;SDS011;29762;50.086;14.364;2023-05-07T10:47:09;4.95;;;4.40;;
44098;SDS011;29762;50.086;14.364;2023-05-07T10:52:31;4.47;;;4.07;;
44098;SDS011;29762;50.086;14.364;2023-05-07T11:09:53;5.13;;;4.00;;
44098;SDS011;29762;50.086;14.364;2023-05-07T11:21:09;3.13;;;2.67;;
44098;SDS011;29762;50.086;14.364;2023-05-07T11:26:45;5.32;;;4.28;;
44098;SDS011;29762;50.086;14.364;2023-05-07T11:32:06;3.97;;;3.60;;
44098;SDS011;29762;50.086;14.364;2023-05-07T11:37:42;4.30;;;3.45;;
44098;SDS011;29762;50.086;14.364;2023-05-07T11:43:10;3.17;;;2.97;;
44098;SDS011;29762;50.086;14.364;2023-05-07T11:48:30;4.40;;;3.95;;
44098;SDS011;29762;50.086;14.364;2023-05-07T11:53:49;4.32;;;3.92;;
44098;SDS011;29762;50.086;14.364;2023-05-07T11:59:09;4.07;;;3.50;;
44098;SDS011;29762;50.086;14.364;2023-05-07T12:04:29;4.30;;;3.58;;
44098;SDS011;29762;50.086;14.364;2023-05-07T12:09:49;5.22;;;3.75;;
44098;SDS011;29762;50.086;14.364;2023-05-07T12:15:09;4.25;;;3.83;;
44098;SDS011;29762;50.086;14.364;2023-05-07T12:20:29;3.53;;;3.22;;
44098;SDS011;29762;50.086;14.364;2023-05-07T12:25:48;4.00;;;2.83;;
44098;SDS011;29762;50.086;14.364;2023-05-07T12:31:08;2.65;;;2.45;;
44098;SDS011;29762;50.086;14.364;2023-05-07T12:36:35;3.42;;;3.13;;
44098;SDS011;29762;50.086;14.364;2023-05-07T12:41:57;5.65;;;3.78;;
44098;SDS011;29762;50.086;14.364;2023-05-07T12:47:18;9.93;;;4.10;;
44098;SDS011;29762;50.086;14.364;2023-05-07T12:52:37;7.60;;;4.40;;
44098;SDS011;29762;50.086;14.364;2023-05-07T12:58:00;6.75;;;3.88;;
44098;SDS011;29762;50.086;14.364;2023-05-07T13:08:48;8.02;;;3.85;;
44098;SDS011;29762;50.086;14.364;2023-05-07T13:14:08;5.00;;;3.20;;
44098;SDS011;29762;50.086;14.364;2023-05-07T13:19:28;9.15;;;3.53;;
44098;SDS011;29762;50.086;14.364;2023-05-07T13:24:47;9.43;;;3.95;;
44098;SDS011;29762;50.086;14.364;2023-05-07T13:30:07;4.70;;;3.42;;
44098;SDS011;29762;50.086;14.364;2023-05-07T13:35:27;5.90;;;3.13;;
44098;SDS011;29762;50.086;14.364;2023-05-07T13:40:47;4.28;;;2.45;;
44098;SDS011;29762;50.086;14.364;2023-05-07T13:46:06;7.25;;;4.00;;
44098;SDS011;29762;50.086;14.364;2023-05-07T13:51:25;6.50;;;3.13;;
44098;SDS011;29762;50.086;14.364;2023-05-07T13:56:45;4.97;;;3.22;;
44098;SDS011;29762;50.086;14.364;2023-05-07T14:02:04;2.50;;;2.05;;
44098;SDS011;29762;50.086;14.364;2023-05-07T14:07:24;3.15;;;2.50;;
44098;SDS011;29762;50.086;14.364;2023-05-07T14:12:44;3.63;;;2.60;;
44098;SDS011;29762;50.086;14.364;2023-05-07T14:18:06;3.75;;;3.08;;
44098;SDS011;29762;50.086;14.364;2023-05-07T14:23:26;3.63;;;3.00;;
44098;SDS011;29762;50.086;14.364;2023-05-07T14:28:46;4.20;;;2.80;;
44098;SDS011;29762;50.086;14.364;2023-05-07T14:34:05;2.72;;;2.47;;
44098;SDS011;29762;50.086;14.364;2023-05-07T14:39:25;4.60;;;2.78;;
44098;SDS011;29762;50.086;14.364;2023-05-07T14:44:45;3.58;;;2.65;;
44098;SDS011;29762;50.086;14.364;2023-05-07T14:50:05;2.63;;;2.30;;
44098;SDS011;29762;50.086;14.364;2023-05-07T14:55:25;4.63;;;2.92;;
44098;SDS011;29762;50.086;14.364;2023-05-07T15:00:45;3.38;;;2.40;;
44098;SDS011;29762;50.086;14.364;2023-05-07T15:06:04;2.97;;;2.63;;
44098;SDS011;29762;50.086;14.364;2023-05-07T15:11:24;4.13;;;2.78;;
44098;SDS011;29762;50.086;14.364;2023-05-07T15:16:43;2.83;;;2.53;;
44098;SDS011;29762;50.086;14.364;2023-05-07T15:22:04;4.57;;;2.70;;
44098;SDS011;29762;50.086;14.364;2023-05-07T15:27:24;2.28;;;2.08;;
44098;SDS011;29762;50.086;14.364;2023-05-07T15:32:44;3.42;;;2.50;;
44098;SDS011;29762;50.086;14.364;2023-05-07T15:38:04;3.83;;;2.45;;
44098;SDS011;29762;50.086;14.364;2023-05-07T15:43:24;2.92;;;2.13;;
44098;SDS011;29762;50.086;14.364;2023-05-07T15:48:44;5.10;;;2.30;;
44098;SDS011;29762;50.086;14.364;2023-05-07T15:54:03;5.68;;;2.35;;
44098;SDS011;29762;50.086;14.364;2023-05-07T15:59:23;3.80;;;2.08;;
44098;SDS011;29762;50.086;14.364;2023-05-07T16:04:43;4.82;;;2.30;;
44098;SDS011;29762;50.086;14.364;2023-05-07T16:10:03;2.80;;;2.40;;
44098;SDS011;29762;50.086;14.364;2023-05-07T16:15:23;4.43;;;2.10;;
44098;SDS011;29762;50.086;14.364;2023-05-07T16:20:44;5.10;;;1.92;;
44098;SDS011;29762;50.086;14.364;2023-05-07T16:26:04;2.50;;;2.10;;
44098;SDS011;29762;50.086;14.364;2023-05-07T16:31:23;2.58;;;1.42;;
44098;SDS011;29762;50.086;14.364;2023-05-07T16:36:44;2.67;;;2.03;;
44098;SDS011;29762;50.086;14.364;2023-05-07T16:42:03;3.33;;;1.88;;
44098;SDS011;29762;50.086;14.364;2023-05-07T16:47:23;2.72;;;1.90;;
44098;SDS011;29762;50.086;14.364;2023-05-07T16:52:43;2.10;;;1.92;;
44098;SDS011;29762;50.086;14.364;2023-05-07T16:58:06;3.63;;;1.98;;
44098;SDS011;29762;50.086;14.364;2023-05-07T17:03:27;2.28;;;2.08;;
44098;SDS011;29762;50.086;14.364;2023-05-07T17:08:47;2.72;;;1.95;;
44098;SDS011;29762;50.086;14.364;2023-05-07T17:14:09;2.20;;;1.63;;
44098;SDS011;29762;50.086;14.364;2023-05-07T17:19:29;1.67;;;1.52;;
44098;SDS011;29762;50.086;14.364;2023-05-07T17:24:49;2.13;;;1.90;;
44098;SDS011;29762;50.086;14.364;2023-05-07T17:30:09;3.50;;;2.10;;
44098;SDS011;29762;50.086;14.364;2023-05-07T17:35:29;4.70;;;1.58;;
44098;SDS011;29762;50.086;14.364;2023-05-07T17:40:50;3.53;;;1.42;;
44098;SDS011;29762;50.086;14.364;2023-05-07T17:46:10;1.98;;;1.48;;
44098;SDS011;29762;50.086;14.364;2023-05-07T17:51:30;3.83;;;1.90;;
44098;SDS011;29762;50.086;14.364;2023-05-07T17:56:50;2.70;;;1.70;;
44098;SDS011;29762;50.086;14.364;2023-05-07T18:02:10;2.30;;;2.10;;
44098;SDS011;29762;50.086;14.364;2023-05-07T18:07:30;1.38;;;1.27;;
44098;SDS011;29762;50.086;14.364;2023-05-07T18:12:50;1.55;;;1.45;;
44098;SDS011;29762;50.086;14.364;2023-05-07T18:18:09;3.15;;;1.70;;
44098;SDS011;29762;50.086;14.364;2023-05-07T18:23:29;1.70;;;1.60;;
44098;SDS011;29762;50.086;14.364;2023-05-07T18:28:51;1.70;;;1.40;;
44098;SDS011;29762;50.086;14.364;2023-05-07T18:34:11;3.97;;;1.90;;
44098;SDS011;29762;50.086;14.364;2023-05-07T18:39:33;3.08;;;1.65;;
44098;SDS011;29762;50.086;14.364;2023-05-07T18:44:54;1.98;;;1.23;;
44098;SDS011;29762;50.086;14.364;2023-05-07T18:50:13;1.52;;;1.42;;
44098;SDS011;29762;50.086;14.364;2023-05-07T18:55:34;1.70;;;1.60;;
44098;SDS011;29762;50.086;14.364;2023-05-07T19:00:54;4.05;;;1.70;;
44098;SDS011;29762;50.086;14.364;2023-05-07T19:06:14;1.90;;;1.60;;
44098;SDS011;29762;50.086;14.364;2023-05-07T19:11:33;6.03;;;1.70;;
44098;SDS011;29762;50.086;14.364;2023-05-07T19:16:53;3.40;;;1.73;;
44098;SDS011;29762;50.086;14.364;2023-05-07T19:22:12;2.55;;;1.83;;
44098;SDS011;29762;50.086;14.364;2023-05-07T19:27:31;1.73;;;1.60;;
44098;SDS011;29762;50.086;14.364;2023-05-07T19:32:50;2.35;;;1.75;;
44098;SDS011;29762;50.086;14.364;2023-05-07T19:38:10;2.55;;;1.50;;
44098;SDS011;29762;50.086;14.364;2023-05-07T19:43:30;2.00;;;1.70;;
44098;SDS011;29762;50.086;14.364;2023-05-07T19:48:56;2.00;;;1.73;;
44098;SDS011;29762;50.086;14.364;2023-05-07T19:54:15;1.85;;;1.60;;
44098;SDS011;29762;50.086;14.364;2023-05-07T19:59:35;2.85;;;1.60;;
44098;SDS011;29762;50.086;14.364;2023-05-07T20:04:54;2.03;;;1.60;;
44098;SDS011;29762;50.086;14.364;2023-05-07T20:10:14;2.47;;;1.40;;
44098;SDS011;29762;50.086;14.364;2023-05-07T20:15:35;1.83;;;1.73;;
44098;SDS011;29762;50.086;14.364;2023-05-07T20:20:55;2.15;;;1.50;;
44098;SDS011;29762;50.086;14.364;2023-05-07T20:26:15;1.85;;;1.50;;
44098;SDS011;29762;50.086;14.364;2023-05-07T20:31:35;1.70;;;1.50;;
44098;SDS011;29762;50.086;14.364;2023-05-07T20:36:54;1.65;;;1.52;;
44098;SDS011;29762;50.086;14.364;2023-05-07T20:42:15;2.17;;;1.50;;
44098;SDS011;29762;50.086;14.364;2023-05-07T20:47:35;3.05;;;1.63;;
44098;SDS011;29762;50.086;14.364;2023-05-07T20:52:55;1.50;;;1.38;;
44098;SDS011;29762;50.086;14.364;2023-05-07T20:58:14;1.58;;;1.48;;
44098;SDS011;29762;50.086;14.364;2023-05-07T21:03:34;1.60;;;1.50;;
44098;SDS011;29762;50.086;14.364;2023-05-07T21:08:53;2.53;;;1.70;;
44098;SDS011;29762;50.086;14.364;2023-05-07T21:14:13;1.60;;;1.50;;
44098;SDS011;29762;50.086;14.364;2023-05-07T21:19:33;2.55;;;1.33;;
44098;SDS011;29762;50.086;14.364;2023-05-07T21:24:52;1.70;;;1.50;;
44098;SDS011;29762;50.086;14.364;2023-05-07T21:30:12;1.42;;;1.33;;
44098;SDS011;29762;50.086;14.364;2023-05-07T21:35:32;1.70;;;1.33;;
44098;SDS011;29762;50.086;14.364;2023-05-07T21:40:51;1.40;;;1.30;;
44098;SDS011;29762;50.086;14.364;2023-05-07T21:46:10;1.38;;;1.27;;
44098;SDS011;29762;50.086;14.364;2023-05-07T21:51:31;1.50;;;1.40;;
44098;SDS011;29762;50.086;14.364;2023-05-07T21:56:52;1.45;;;1.35;;
44098;SDS011;29762;50.086;14.364;2023-05-07T22:02:11;1.50;;;1.40;;
44098;SDS011;29762;50.086;14.364;2023-05-07T22:07:31;1.50;;;1.40;;
44098;SDS011;29762;50.086;14.364;2023-05-07T22:12:51;1.55;;;1.45;;
44098;SDS011;29762;50.086;14.364;2023-05-07T22:18:10;2.08;;;1.58;;
44098;SDS011;29762;50.086;14.364;2023-05-07T22:23:29;1.23;;;1.10;;
44098;SDS011;29762;50.086;14.364;2023-05-07T22:28:49;1.30;;;1.20;;
44098;SDS011;29762;50.086;14.364;2023-05-07T22:34:08;2.40;;;1.38;;
44098;SDS011;29762;50.086;14.364;2023-05-07T22:39:27;1.58;;;1.48;;
44098;SDS011;29762;50.086;14.364;2023-05-07T22:44:55;1.75;;;1.40;;
44098;SDS011;29762;50.086;14.364;2023-05-07T22:50:14;1.60;;;1.50;;
44098;SDS011;29762;50.086;14.364;2023-05-07T22:55:34;1.58;;;1.45;;
44098;SDS011;29762;50.086;14.364;2023-05-07T23:00:54;1.40;;;1.30;;
44098;SDS011;29762;50.086;14.364;2023-05-07T23:06:13;2.65;;;1.35;;
44098;SDS011;29762;50.086;14.364;2023-05-07T23:11:33;1.42;;;1.33;;
44098;SDS011;29762;50.086;14.364;2023-05-07T23:16:52;1.70;;;1.60;;
44098;SDS011;29762;50.086;14.364;2023-05-07T23:22:12;1.60;;;1.50;;
44098;SDS011;29762;50.086;14.364;2023-05-07T23:27:34;1.50;;;1.40;;
44098;SDS011;29762;50.086;14.364;2023-05-07T23:32:53;1.50;;;1.33;;
44098;SDS011;29762;50.086;14.364;2023-05-07T23:38:13;1.42;;;1.33;;
44098;SDS011;29762;50.086;14.364;2023-05-07T23:43:32;1.40;;;1.30;;
44098;SDS011;29762;50.086;14.364;2023-05-07T23:48:52;1.52;;;1.33;;
44098;SDS011;29762;50.086;14.364;2023-05-07T23:54:11;1.42;;;1.33;;
44098;SDS011;29762;50.086;14.364;2023-05-07T23:59:30;2.13;;;1.55;;
